Colfax, CA

10:25 AM PDT on August 25, 2016 (GMT -0700)
MAP | | Change Station

Elev 2109 ft 39.08 °N, 120.94 °W | Updated 1 hour ago

Clear
Clear
73 °F
Feels Like 76 °F
N
2
Wind Variable Wind from North
Gusts 0.0 mph

Today
High -- | Low -- °F
--% Chance of Precip.
Yesterday
High -- | Low -- °F
Precip. -- in
Pressure 30.03 in
Visibility 10.0 miles
Clouds Clear
Heat Index 76 °F
Dew Point 33 °F
Humidity 23%
Rainfall in
Snow Depth Not available.
6:26 AM 7:43 PM
Last Quarter, 44% visible
METAR KGOO 251720Z AUTO 00000KT 10SM CLR 27/M03 A3003 RMK AO1
Pressure 30.03 in
Visibility 10.0 miles
Clouds Clear
Heat Index 76 °F
Dew Point 33 °F
Humidity 23%
Rainfall in
Snow Depth Not available.
6:26 AM 7:43 PM
Last Quarter, 44% visible
METAR KGOO 251720Z AUTO 00000KT 10SM CLR 27/M03 A3003 RMK AO1
A tropical disturbance pushing toward the Bahamas, is expected to develop into a tropical depression or storm, and will likely target Florida and the Gulf Coast this weekend into next week.

Right now, the disturbance remains a broad area of low pressure pushing through the Dominican Republic and Haiti, headed toward the southeast Bahamas. Rainfall totals over 3 inches (with locally higher amounts) are expected in HispaƱiola, particularly over elevated terrain.

10-Day Weather Forecast

Almanac

Astronomy

Aug. 25, 2016 Rise Set
Actual Time
Civil Twilight
Nautical Twilight
Astronomical Twilight
Moon
Length of Visible Light
Length of Day
Tomorrow will be .
, % of the Moon is Illuminated

Today's Extremes

State Highs State Lows

Community

WunderPhotos

Upload Photos

1,934,881 photos uploaded!

WunderBlog® & News

Nearby

Air Quality

  Air Quality AQ Index Pollutant
Not available.

Snow Depth

Station Depth Elevation

Earthquake Activity

City Distance Mag. Time & Date
Minimum magnitude displayed is 2.5.

Coastal Water Temperatures

Place Temperature

Stations

Nearby Weather Stations

Station Location Temp. Windchill Dew Point Humidity Wind Precip. Elev Updated Type
                   

Watches & Warnings

There are currently no watches in effect.